sensor_id;sensor_type;location;lat;lon;timestamp;P1;durP1;ratioP1;P2;durP2;ratioP2
7375;SDS011;3728;42.266;24.944;2022-09-13T00:01:01;4.00;;;3.63;;
7375;SDS011;3728;42.266;24.944;2022-09-13T00:03:29;4.23;;;3.57;;
7375;SDS011;3728;42.266;24.944;2022-09-13T00:05:57;3.50;;;3.20;;
7375;SDS011;3728;42.266;24.944;2022-09-13T00:08:31;4.50;;;3.50;;
7375;SDS011;3728;42.266;24.944;2022-09-13T00:10:59;5.43;;;3.60;;
7375;SDS011;3728;42.266;24.944;2022-09-13T00:13:26;3.67;;;3.40;;
7375;SDS011;3728;42.266;24.944;2022-09-13T00:15:54;4.10;;;3.77;;
7375;SDS011;3728;42.266;24.944;2022-09-13T00:18:22;6.97;;;4.10;;
7375;SDS011;3728;42.266;24.944;2022-09-13T00:20:49;11.73;;;4.17;;
7375;SDS011;3728;42.266;24.944;2022-09-13T00:23:17;5.07;;;3.47;;
7375;SDS011;3728;42.266;24.944;2022-09-13T00:25:44;3.97;;;3.67;;
7375;SDS011;3728;42.266;24.944;2022-09-13T00:28:12;4.37;;;3.47;;
7375;SDS011;3728;42.266;24.944;2022-09-13T00:30:39;3.60;;;3.30;;
7375;SDS011;3728;42.266;24.944;2022-09-13T00:33:07;3.27;;;3.00;;
7375;SDS011;3728;42.266;24.944;2022-09-13T00:35:34;3.53;;;3.23;;
7375;SDS011;3728;42.266;24.944;2022-09-13T00:38:02;3.20;;;3.00;;
7375;SDS011;3728;42.266;24.944;2022-09-13T00:40:29;3.50;;;3.00;;
7375;SDS011;3728;42.266;24.944;2022-09-13T00:42:56;3.60;;;3.30;;
7375;SDS011;3728;42.266;24.944;2022-09-13T00:45:24;3.43;;;3.07;;
7375;SDS011;3728;42.266;24.944;2022-09-13T00:47:59;4.63;;;3.13;;
7375;SDS011;3728;42.266;24.944;2022-09-13T00:50:34;2.93;;;2.77;;
7375;SDS011;3728;42.266;24.944;2022-09-13T00:53:18;4.93;;;3.33;;
7375;SDS011;3728;42.266;24.944;2022-09-13T00:55:53;3.47;;;3.27;;
7375;SDS011;3728;42.266;24.944;2022-09-13T01:01:08;3.80;;;3.50;;
7375;SDS011;3728;42.266;24.944;2022-09-13T01:03:38;3.20;;;3.00;;
7375;SDS011;3728;42.266;24.944;2022-09-13T01:06:10;3.47;;;3.27;;
7375;SDS011;3728;42.266;24.944;2022-09-13T01:08:54;3.30;;;3.10;;
7375;SDS011;3728;42.266;24.944;2022-09-13T01:12:04;4.10;;;3.47;;
7375;SDS011;3728;42.266;24.944;2022-09-13T01:14:44;3.20;;;2.90;;
7375;SDS011;3728;42.266;24.944;2022-09-13T01:17:13;3.73;;;3.10;;
7375;SDS011;3728;42.266;24.944;2022-09-13T01:19:41;4.27;;;2.80;;
7375;SDS011;3728;42.266;24.944;2022-09-13T01:36:35;3.53;;;3.23;;
7375;SDS011;3728;42.266;24.944;2022-09-13T01:42:29;3.43;;;3.10;;
7375;SDS011;3728;42.266;24.944;2022-09-13T01:48:23;3.53;;;3.23;;
7375;SDS011;3728;42.266;24.944;2022-09-13T01:51:27;3.30;;;3.10;;
7375;SDS011;3728;42.266;24.944;2022-09-13T01:56:51;3.63;;;3.00;;
7375;SDS011;3728;42.266;24.944;2022-09-13T02:05:23;3.60;;;3.30;;
7375;SDS011;3728;42.266;24.944;2022-09-13T02:07:58;4.50;;;3.20;;
7375;SDS011;3728;42.266;24.944;2022-09-13T02:10:42;5.17;;;3.37;;
7375;SDS011;3728;42.266;24.944;2022-09-13T02:13:20;3.93;;;3.53;;
7375;SDS011;3728;42.266;24.944;2022-09-13T02:15:53;4.93;;;3.20;;
7375;SDS011;3728;42.266;24.944;2022-09-13T02:18:42;6.87;;;3.67;;
7375;SDS011;3728;42.266;24.944;2022-09-13T02:21:21;4.53;;;3.47;;
7375;SDS011;3728;42.266;24.944;2022-09-13T02:24:10;3.47;;;3.17;;
7375;SDS011;3728;42.266;24.944;2022-09-13T02:26:46;3.50;;;3.17;;
7375;SDS011;3728;42.266;24.944;2022-09-13T02:29:18;3.77;;;3.00;;
7375;SDS011;3728;42.266;24.944;2022-09-13T02:32:02;3.60;;;3.30;;
7375;SDS011;3728;42.266;24.944;2022-09-13T02:34:37;3.50;;;3.20;;
7375;SDS011;3728;42.266;24.944;2022-09-13T02:37:11;4.20;;;3.40;;
7375;SDS011;3728;42.266;24.944;2022-09-13T02:39:46;3.97;;;3.67;;
7375;SDS011;3728;42.266;24.944;2022-09-13T02:45:24;3.97;;;3.13;;
7375;SDS011;3728;42.266;24.944;2022-09-13T02:48:10;3.57;;;3.27;;
7375;SDS011;3728;42.266;24.944;2022-09-13T02:51:15;3.57;;;3.27;;
7375;SDS011;3728;42.266;24.944;2022-09-13T02:56:52;4.87;;;3.20;;
7375;SDS011;3728;42.266;24.944;2022-09-13T02:59:26;3.57;;;3.13;;
7375;SDS011;3728;42.266;24.944;2022-09-13T03:02:04;5.27;;;3.40;;
7375;SDS011;3728;42.266;24.944;2022-09-13T03:04:37;6.30;;;3.80;;
7375;SDS011;3728;42.266;24.944;2022-09-13T03:07:13;3.03;;;2.70;;
7375;SDS011;3728;42.266;24.944;2022-09-13T03:09:48;5.33;;;3.97;;
7375;SDS011;3728;42.266;24.944;2022-09-13T03:26:50;3.97;;;3.00;;
7375;SDS011;3728;42.266;24.944;2022-09-13T03:30:02;4.07;;;3.13;;
7375;SDS011;3728;42.266;24.944;2022-09-13T03:41:05;4.43;;;3.17;;
7375;SDS011;3728;42.266;24.944;2022-09-13T03:43:43;5.77;;;3.53;;
7375;SDS011;3728;42.266;24.944;2022-09-13T03:49:08;3.97;;;3.57;;
7375;SDS011;3728;42.266;24.944;2022-09-13T03:51:42;7.50;;;3.87;;
7375;SDS011;3728;42.266;24.944;2022-09-13T03:54:23;4.73;;;3.70;;
7375;SDS011;3728;42.266;24.944;2022-09-13T03:57:14;4.10;;;3.37;;
7375;SDS011;3728;42.266;24.944;2022-09-13T03:59:50;6.37;;;3.53;;
7375;SDS011;3728;42.266;24.944;2022-09-13T04:02:21;10.33;;;3.80;;
7375;SDS011;3728;42.266;24.944;2022-09-13T04:04:50;3.97;;;3.57;;
7375;SDS011;3728;42.266;24.944;2022-09-13T04:07:19;7.87;;;3.73;;
7375;SDS011;3728;42.266;24.944;2022-09-13T04:09:49;4.83;;;3.00;;
7375;SDS011;3728;42.266;24.944;2022-09-13T04:12:17;4.90;;;3.53;;
7375;SDS011;3728;42.266;24.944;2022-09-13T04:14:45;3.93;;;3.60;;
7375;SDS011;3728;42.266;24.944;2022-09-13T04:17:13;4.43;;;3.43;;
7375;SDS011;3728;42.266;24.944;2022-09-13T04:19:41;5.20;;;3.67;;
7375;SDS011;3728;42.266;24.944;2022-09-13T04:22:10;3.73;;;3.37;;
7375;SDS011;3728;42.266;24.944;2022-09-13T04:24:38;3.90;;;3.57;;
7375;SDS011;3728;42.266;24.944;2022-09-13T04:27:06;4.03;;;3.60;;
7375;SDS011;3728;42.266;24.944;2022-09-13T04:29:34;4.83;;;3.50;;
7375;SDS011;3728;42.266;24.944;2022-09-13T04:32:02;5.50;;;3.67;;
7375;SDS011;3728;42.266;24.944;2022-09-13T04:34:29;3.57;;;3.10;;
7375;SDS011;3728;42.266;24.944;2022-09-13T04:36:57;6.37;;;3.90;;
7375;SDS011;3728;42.266;24.944;2022-09-13T04:39:24;3.27;;;3.00;;
7375;SDS011;3728;42.266;24.944;2022-09-13T04:41:52;3.60;;;3.27;;
7375;SDS011;3728;42.266;24.944;2022-09-13T04:44:20;6.27;;;3.20;;
7375;SDS011;3728;42.266;24.944;2022-09-13T04:46:50;4.77;;;3.13;;
7375;SDS011;3728;42.266;24.944;2022-09-13T04:49:17;6.87;;;3.63;;
7375;SDS011;3728;42.266;24.944;2022-09-13T04:51:45;5.33;;;3.57;;
7375;SDS011;3728;42.266;24.944;2022-09-13T04:54:13;3.77;;;3.10;;
7375;SDS011;3728;42.266;24.944;2022-09-13T04:56:42;7.27;;;3.83;;
7375;SDS011;3728;42.266;24.944;2022-09-13T04:59:11;11.57;;;5.07;;
7375;SDS011;3728;42.266;24.944;2022-09-13T05:01:39;5.33;;;3.93;;
7375;SDS011;3728;42.266;24.944;2022-09-13T05:04:08;11.07;;;4.37;;
7375;SDS011;3728;42.266;24.944;2022-09-13T05:06:36;4.50;;;3.40;;
7375;SDS011;3728;42.266;24.944;2022-09-13T05:09:04;6.97;;;3.17;;
7375;SDS011;3728;42.266;24.944;2022-09-13T05:11:32;6.80;;;3.23;;
7375;SDS011;3728;42.266;24.944;2022-09-13T05:13:59;7.27;;;3.70;;
7375;SDS011;3728;42.266;24.944;2022-09-13T05:16:28;4.10;;;3.10;;
7375;SDS011;3728;42.266;24.944;2022-09-13T05:18:58;4.70;;;3.17;;
7375;SDS011;3728;42.266;24.944;2022-09-13T05:21:27;6.67;;;3.20;;
7375;SDS011;3728;42.266;24.944;2022-09-13T05:23:56;5.87;;;3.10;;
7375;SDS011;3728;42.266;24.944;2022-09-13T05:26:25;3.50;;;3.20;;
7375;SDS011;3728;42.266;24.944;2022-09-13T05:28:57;3.73;;;3.03;;
7375;SDS011;3728;42.266;24.944;2022-09-13T05:31:27;5.23;;;2.97;;
7375;SDS011;3728;42.266;24.944;2022-09-13T05:34:02;8.80;;;2.80;;
7375;SDS011;3728;42.266;24.944;2022-09-13T05:36:39;3.93;;;3.40;;
7375;SDS011;3728;42.266;24.944;2022-09-13T05:39:11;6.40;;;3.20;;
7375;SDS011;3728;42.266;24.944;2022-09-13T05:42:03;4.33;;;3.60;;
7375;SDS011;3728;42.266;24.944;2022-09-13T05:44:30;7.00;;;4.13;;
7375;SDS011;3728;42.266;24.944;2022-09-13T05:46:58;4.93;;;3.70;;
7375;SDS011;3728;42.266;24.944;2022-09-13T05:49:25;6.17;;;3.70;;
7375;SDS011;3728;42.266;24.944;2022-09-13T05:51:53;8.67;;;5.20;;
7375;SDS011;3728;42.266;24.944;2022-09-13T05:54:20;6.87;;;5.60;;
7375;SDS011;3728;42.266;24.944;2022-09-13T05:56:48;8.67;;;5.90;;
7375;SDS011;3728;42.266;24.944;2022-09-13T05:59:17;10.43;;;3.90;;
7375;SDS011;3728;42.266;24.944;2022-09-13T06:01:45;5.23;;;3.00;;
7375;SDS011;3728;42.266;24.944;2022-09-13T06:04:13;4.73;;;2.90;;
7375;SDS011;3728;42.266;24.944;2022-09-13T06:06:41;4.17;;;2.80;;
7375;SDS011;3728;42.266;24.944;2022-09-13T06:09:09;5.17;;;2.80;;
7375;SDS011;3728;42.266;24.944;2022-09-13T06:11:37;7.20;;;3.30;;
7375;SDS011;3728;42.266;24.944;2022-09-13T06:14:05;6.13;;;3.53;;
7375;SDS011;3728;42.266;24.944;2022-09-13T06:16:32;6.23;;;3.60;;
7375;SDS011;3728;42.266;24.944;2022-09-13T06:19:00;7.73;;;3.87;;
7375;SDS011;3728;42.266;24.944;2022-09-13T06:21:28;6.67;;;3.03;;
7375;SDS011;3728;42.266;24.944;2022-09-13T06:23:55;5.23;;;3.17;;
7375;SDS011;3728;42.266;24.944;2022-09-13T06:26:24;5.57;;;3.23;;
7375;SDS011;3728;42.266;24.944;2022-09-13T06:28:54;3.37;;;3.07;;
7375;SDS011;3728;42.266;24.944;2022-09-13T06:31:24;5.83;;;2.53;;
7375;SDS011;3728;42.266;24.944;2022-09-13T06:33:55;6.67;;;2.93;;
7375;SDS011;3728;42.266;24.944;2022-09-13T06:36:25;6.47;;;2.80;;
7375;SDS011;3728;42.266;24.944;2022-09-13T06:38:53;5.63;;;2.70;;
7375;SDS011;3728;42.266;24.944;2022-09-13T06:41:22;2.70;;;2.50;;
7375;SDS011;3728;42.266;24.944;2022-09-13T06:43:56;4.03;;;2.73;;
7375;SDS011;3728;42.266;24.944;2022-09-13T06:46:27;8.00;;;2.83;;
7375;SDS011;3728;42.266;24.944;2022-09-13T06:49:00;5.43;;;2.50;;
7375;SDS011;3728;42.266;24.944;2022-09-13T06:51:30;3.80;;;2.30;;
7375;SDS011;3728;42.266;24.944;2022-09-13T06:53:59;4.53;;;2.27;;
7375;SDS011;3728;42.266;24.944;2022-09-13T06:56:30;3.57;;;2.07;;
7375;SDS011;3728;42.266;24.944;2022-09-13T06:59:00;4.13;;;2.40;;
7375;SDS011;3728;42.266;24.944;2022-09-13T07:04:11;3.33;;;2.07;;
7375;SDS011;3728;42.266;24.944;2022-09-13T07:06:43;5.03;;;2.73;;
7375;SDS011;3728;42.266;24.944;2022-09-13T07:09:15;2.97;;;2.30;;
7375;SDS011;3728;42.266;24.944;2022-09-13T07:11:47;3.50;;;1.90;;
7375;SDS011;3728;42.266;24.944;2022-09-13T07:14:21;2.40;;;2.20;;
7375;SDS011;3728;42.266;24.944;2022-09-13T07:16:52;2.57;;;2.10;;
7375;SDS011;3728;42.266;24.944;2022-09-13T07:19:22;2.23;;;2.03;;
7375;SDS011;3728;42.266;24.944;2022-09-13T07:21:54;5.53;;;2.60;;
7375;SDS011;3728;42.266;24.944;2022-09-13T07:24:23;2.60;;;2.40;;
7375;SDS011;3728;42.266;24.944;2022-09-13T07:26:52;7.90;;;2.10;;
7375;SDS011;3728;42.266;24.944;2022-09-13T07:29:20;3.70;;;2.10;;
7375;SDS011;3728;42.266;24.944;2022-09-13T07:31:50;3.47;;;1.80;;
7375;SDS011;3728;42.266;24.944;2022-09-13T07:34:20;4.27;;;2.17;;
7375;SDS011;3728;42.266;24.944;2022-09-13T07:36:50;5.00;;;2.07;;
7375;SDS011;3728;42.266;24.944;2022-09-13T07:39:18;4.20;;;2.00;;
7375;SDS011;3728;42.266;24.944;2022-09-13T07:41:50;4.80;;;1.90;;
7375;SDS011;3728;42.266;24.944;2022-09-13T07:44:19;2.07;;;1.90;;
7375;SDS011;3728;42.266;24.944;2022-09-13T07:46:46;2.75;;;1.48;;
7375;SDS011;3728;42.266;24.944;2022-09-13T07:49:15;2.03;;;1.73;;
7375;SDS011;3728;42.266;24.944;2022-09-13T07:51:47;3.72;;;1.75;;
7375;SDS011;3728;42.266;24.944;2022-09-13T07:54:17;5.60;;;1.60;;
7375;SDS011;3728;42.266;24.944;2022-09-13T07:56:45;2.50;;;1.65;;
7375;SDS011;3728;42.266;24.944;2022-09-13T07:59:16;1.70;;;1.60;;
7375;SDS011;3728;42.266;24.944;2022-09-13T08:01:48;5.28;;;1.60;;
7375;SDS011;3728;42.266;24.944;2022-09-13T08:04:18;2.97;;;1.67;;
7375;SDS011;3728;42.266;24.944;2022-09-13T08:06:49;4.65;;;1.50;;
7375;SDS011;3728;42.266;24.944;2022-09-13T08:09:17;1.40;;;1.30;;
7375;SDS011;3728;42.266;24.944;2022-09-13T08:11:46;2.53;;;1.30;;
7375;SDS011;3728;42.266;24.944;2022-09-13T08:14:17;2.58;;;1.50;;
7375;SDS011;3728;42.266;24.944;2022-09-13T08:16:46;2.55;;;1.52;;
7375;SDS011;3728;42.266;24.944;2022-09-13T08:19:16;1.42;;;1.33;;
7375;SDS011;3728;42.266;24.944;2022-09-13T08:21:44;3.25;;;2.88;;
7375;SDS011;3728;42.266;24.944;2022-09-13T08:24:17;9.07;;;6.03;;
7375;SDS011;3728;42.266;24.944;2022-09-13T08:26:48;2.38;;;2.17;;
7375;SDS011;3728;42.266;24.944;2022-09-13T08:29:17;5.25;;;2.58;;
7375;SDS011;3728;42.266;24.944;2022-09-13T08:31:45;1.45;;;1.35;;
7375;SDS011;3728;42.266;24.944;2022-09-13T08:34:13;1.40;;;1.30;;
7375;SDS011;3728;42.266;24.944;2022-09-13T08:36:43;2.03;;;1.60;;
7375;SDS011;3728;42.266;24.944;2022-09-13T08:39:11;4.30;;;1.63;;
7375;SDS011;3728;42.266;24.944;2022-09-13T08:47:30;1.52;;;0.98;;
7375;SDS011;3728;42.266;24.944;2022-09-13T08:50:12;2.85;;;1.40;;
7375;SDS011;3728;42.266;24.944;2022-09-13T08:52:59;1.52;;;1.30;;
7375;SDS011;3728;42.266;24.944;2022-09-13T09:04:46;2.17;;;1.17;;
7375;SDS011;3728;42.266;24.944;2022-09-13T09:07:26;1.83;;;1.42;;
7375;SDS011;3728;42.266;24.944;2022-09-13T09:09:58;1.63;;;1.10;;
7375;SDS011;3728;42.266;24.944;2022-09-13T09:15:23;1.48;;;1.30;;
7375;SDS011;3728;42.266;24.944;2022-09-13T09:18:10;1.10;;;1.10;;
7375;SDS011;3728;42.266;24.944;2022-09-13T09:20:46;1.25;;;1.13;;
7375;SDS011;3728;42.266;24.944;2022-09-13T09:23:17;1.77;;;1.13;;
7375;SDS011;3728;42.266;24.944;2022-09-13T09:25:53;1.20;;;1.10;;
7375;SDS011;3728;42.266;24.944;2022-09-13T09:28:49;3.42;;;1.00;;
7375;SDS011;3728;42.266;24.944;2022-09-13T09:34:24;3.90;;;1.30;;
7375;SDS011;3728;42.266;24.944;2022-09-13T09:39:59;1.10;;;0.95;;
7375;SDS011;3728;42.266;24.944;2022-09-13T09:42:42;1.23;;;1.13;;
7375;SDS011;3728;42.266;24.944;2022-09-13T09:47:59;1.95;;;0.95;;
7375;SDS011;3728;42.266;24.944;2022-09-13T09:50:38;1.40;;;1.30;;
7375;SDS011;3728;42.266;24.944;2022-09-13T09:53:32;1.20;;;1.10;;
7375;SDS011;3728;42.266;24.944;2022-09-13T09:58:51;1.38;;;1.30;;
7375;SDS011;3728;42.266;24.944;2022-09-13T10:01:25;2.75;;;1.63;;
7375;SDS011;3728;42.266;24.944;2022-09-13T10:06:39;1.10;;;1.00;;
7375;SDS011;3728;42.266;24.944;2022-09-13T10:11:43;4.00;;;1.30;;
7375;SDS011;3728;42.266;24.944;2022-09-13T10:17:17;7.40;;;5.07;;
7375;SDS011;3728;42.266;24.944;2022-09-13T10:19:57;1.58;;;1.45;;
7375;SDS011;3728;42.266;24.944;2022-09-13T10:22:30;2.20;;;2.00;;
7375;SDS011;3728;42.266;24.944;2022-09-13T10:25:12;1.45;;;1.30;;
7375;SDS011;3728;42.266;24.944;2022-09-13T10:27:41;2.05;;;1.63;;
7375;SDS011;3728;42.266;24.944;2022-09-13T10:33:24;4.93;;;1.10;;
7375;SDS011;3728;42.266;24.944;2022-09-13T10:35:58;4.53;;;1.02;;
7375;SDS011;3728;42.266;24.944;2022-09-13T10:39:07;1.52;;;0.98;;
7375;SDS011;3728;42.266;24.944;2022-09-13T10:41:48;0.98;;;0.98;;
7375;SDS011;3728;42.266;24.944;2022-09-13T10:47:31;2.28;;;1.30;;
7375;SDS011;3728;42.266;24.944;2022-09-13T10:50:18;0.90;;;0.90;;
7375;SDS011;3728;42.266;24.944;2022-09-13T10:57:56;1.35;;;1.10;;
7375;SDS011;3728;42.266;24.944;2022-09-13T11:06:53;1.98;;;1.30;;
7375;SDS011;3728;42.266;24.944;2022-09-13T11:10:06;1.08;;;1.08;;
7375;SDS011;3728;42.266;24.944;2022-09-13T11:30:19;1.45;;;1.05;;
7375;SDS011;3728;42.266;24.944;2022-09-13T11:35:42;2.47;;;1.30;;
7375;SDS011;3728;42.266;24.944;2022-09-13T11:41:11;2.53;;;1.17;;
7375;SDS011;3728;42.266;24.944;2022-09-13T11:46:56;1.10;;;1.00;;
7375;SDS011;3728;42.266;24.944;2022-09-13T11:57:49;2.22;;;1.05;;
7375;SDS011;3728;42.266;24.944;2022-09-13T12:00:22;2.03;;;1.00;;
7375;SDS011;3728;42.266;24.944;2022-09-13T12:05:55;1.45;;;0.90;;
7375;SDS011;3728;42.266;24.944;2022-09-13T12:08:30;1.38;;;1.10;;
7375;SDS011;3728;42.266;24.944;2022-09-13T12:11:14;0.90;;;0.90;;
7375;SDS011;3728;42.266;24.944;2022-09-13T12:13:54;2.00;;;1.00;;
7375;SDS011;3728;42.266;24.944;2022-09-13T12:16:37;3.58;;;1.10;;
7375;SDS011;3728;42.266;24.944;2022-09-13T12:22:12;1.67;;;0.90;;
7375;SDS011;3728;42.266;24.944;2022-09-13T12:24:44;2.17;;;1.10;;
7375;SDS011;3728;42.266;24.944;2022-09-13T12:27:22;2.22;;;1.13;;
7375;SDS011;3728;42.266;24.944;2022-09-13T12:30:08;2.15;;;0.88;;
7375;SDS011;3728;42.266;24.944;2022-09-13T12:32:42;2.75;;;0.98;;
7375;SDS011;3728;42.266;24.944;2022-09-13T12:35:16;2.92;;;0.90;;
7375;SDS011;3728;42.266;24.944;2022-09-13T12:41:23;2.45;;;1.17;;
7375;SDS011;3728;42.266;24.944;2022-09-13T13:05:45;1.10;;;1.00;;
7375;SDS011;3728;42.266;24.944;2022-09-13T13:11:01;1.58;;;0.70;;
7375;SDS011;3728;42.266;24.944;2022-09-13T13:19:01;4.93;;;1.00;;
7375;SDS011;3728;42.266;24.944;2022-09-13T13:21:51;0.85;;;0.85;;
7375;SDS011;3728;42.266;24.944;2022-09-13T13:26:51;1.25;;;0.80;;
7375;SDS011;3728;42.266;24.944;2022-09-13T13:34:32;1.15;;;0.90;;
7375;SDS011;3728;42.266;24.944;2022-09-13T13:39:41;1.90;;;0.65;;
7375;SDS011;3728;42.266;24.944;2022-09-13T13:42:28;1.35;;;0.82;;
7375;SDS011;3728;42.266;24.944;2022-09-13T13:47:50;1.80;;;0.77;;
7375;SDS011;3728;42.266;24.944;2022-09-13T13:50:34;4.65;;;0.93;;
7375;SDS011;3728;42.266;24.944;2022-09-13T13:53:39;1.00;;;1.00;;
7375;SDS011;3728;42.266;24.944;2022-09-13T13:56:32;0.73;;;0.70;;
7375;SDS011;3728;42.266;24.944;2022-09-13T13:59:14;3.22;;;0.80;;
7375;SDS011;3728;42.266;24.944;2022-09-13T14:01:52;1.63;;;1.00;;
7375;SDS011;3728;42.266;24.944;2022-09-13T14:11:04;9.02;;;4.35;;
7375;SDS011;3728;42.266;24.944;2022-09-13T14:20:12;2.13;;;1.92;;
7375;SDS011;3728;42.266;24.944;2022-09-13T14:22:43;4.30;;;2.10;;
7375;SDS011;3728;42.266;24.944;2022-09-13T14:27:51;1.08;;;1.08;;
7375;SDS011;3728;42.266;24.944;2022-09-13T14:30:25;2.20;;;1.00;;
7375;SDS011;3728;42.266;24.944;2022-09-13T14:32:59;2.38;;;0.90;;
7375;SDS011;3728;42.266;24.944;2022-09-13T14:38:23;0.88;;;0.88;;
7375;SDS011;3728;42.266;24.944;2022-09-13T14:41:15;2.58;;;1.10;;
7375;SDS011;3728;42.266;24.944;2022-09-13T14:43:48;2.75;;;0.90;;
7375;SDS011;3728;42.266;24.944;2022-09-13T14:46:23;1.67;;;1.05;;
7375;SDS011;3728;42.266;24.944;2022-09-13T14:48:57;3.13;;;0.80;;
7375;SDS011;3728;42.266;24.944;2022-09-13T14:51:31;2.25;;;1.00;;
7375;SDS011;3728;42.266;24.944;2022-09-13T14:54:06;2.85;;;2.65;;
7375;SDS011;3728;42.266;24.944;2022-09-13T14:56:46;2.50;;;1.15;;
7375;SDS011;3728;42.266;24.944;2022-09-13T15:04:47;2.88;;;0.70;;
7375;SDS011;3728;42.266;24.944;2022-09-13T15:07:28;2.42;;;0.93;;
7375;SDS011;3728;42.266;24.944;2022-09-13T15:12:53;1.55;;;0.80;;
7375;SDS011;3728;42.266;24.944;2022-09-13T15:15:37;1.63;;;0.90;;
7375;SDS011;3728;42.266;24.944;2022-09-13T15:20:52;0.93;;;0.90;;
7375;SDS011;3728;42.266;24.944;2022-09-13T15:23:41;1.00;;;0.80;;
7375;SDS011;3728;42.266;24.944;2022-09-13T15:26:19;0.80;;;0.80;;
7375;SDS011;3728;42.266;24.944;2022-09-13T15:28:54;1.33;;;1.08;;
7375;SDS011;3728;42.266;24.944;2022-09-13T15:31:26;7.18;;;6.45;;
7375;SDS011;3728;42.266;24.944;2022-09-13T15:36:43;13.30;;;11.30;;
7375;SDS011;3728;42.266;24.944;2022-09-13T15:39:16;2.20;;;0.95;;
7375;SDS011;3728;42.266;24.944;2022-09-13T15:41:53;2.50;;;1.00;;
7375;SDS011;3728;42.266;24.944;2022-09-13T15:44:23;3.63;;;1.05;;
7375;SDS011;3728;42.266;24.944;2022-09-13T15:46:53;1.63;;;1.00;;
7375;SDS011;3728;42.266;24.944;2022-09-13T15:49:25;3.08;;;1.15;;
7375;SDS011;3728;42.266;24.944;2022-09-13T15:51:55;7.20;;;1.15;;
7375;SDS011;3728;42.266;24.944;2022-09-13T15:54:37;3.05;;;1.25;;
7375;SDS011;3728;42.266;24.944;2022-09-13T15:57:23;4.88;;;1.10;;
7375;SDS011;3728;42.266;24.944;2022-09-13T16:00:14;2.67;;;1.10;;
7375;SDS011;3728;42.266;24.944;2022-09-13T16:02:53;6.75;;;1.20;;
7375;SDS011;3728;42.266;24.944;2022-09-13T16:05:21;9.85;;;1.48;;
7375;SDS011;3728;42.266;24.944;2022-09-13T16:07:49;7.47;;;1.30;;
7375;SDS011;3728;42.266;24.944;2022-09-13T16:10:26;9.35;;;1.40;;
7375;SDS011;3728;42.266;24.944;2022-09-13T16:12:54;7.50;;;1.27;;
7375;SDS011;3728;42.266;24.944;2022-09-13T16:15:22;8.85;;;1.33;;
7375;SDS011;3728;42.266;24.944;2022-09-13T16:18:01;3.38;;;1.20;;
7375;SDS011;3728;42.266;24.944;2022-09-13T16:20:31;7.65;;;1.45;;
7375;SDS011;3728;42.266;24.944;2022-09-13T16:22:59;4.10;;;1.33;;
7375;SDS011;3728;42.266;24.944;2022-09-13T16:25:26;6.60;;;1.25;;
7375;SDS011;3728;42.266;24.944;2022-09-13T16:27:55;12.07;;;1.45;;
7375;SDS011;3728;42.266;24.944;2022-09-13T16:30:25;10.57;;;1.60;;
7375;SDS011;3728;42.266;24.944;2022-09-13T16:32:56;6.50;;;1.63;;
7375;SDS011;3728;42.266;24.944;2022-09-13T16:35:28;11.75;;;1.90;;
7375;SDS011;3728;42.266;24.944;2022-09-13T16:37:58;6.72;;;2.05;;
7375;SDS011;3728;42.266;24.944;2022-09-13T16:40:26;10.07;;;1.63;;
7375;SDS011;3728;42.266;24.944;2022-09-13T16:42:54;12.25;;;2.15;;
7375;SDS011;3728;42.266;24.944;2022-09-13T16:45:21;8.35;;;2.25;;
7375;SDS011;3728;42.266;24.944;2022-09-13T16:47:49;4.45;;;1.90;;
7375;SDS011;3728;42.266;24.944;2022-09-13T16:50:18;5.63;;;1.77;;
7375;SDS011;3728;42.266;24.944;2022-09-13T16:52:46;7.50;;;2.00;;
7375;SDS011;3728;42.266;24.944;2022-09-13T16:55:13;4.35;;;2.38;;
7375;SDS011;3728;42.266;24.944;2022-09-13T16:57:41;4.05;;;2.65;;
7375;SDS011;3728;42.266;24.944;2022-09-13T17:00:10;9.18;;;3.10;;
7375;SDS011;3728;42.266;24.944;2022-09-13T17:02:39;11.85;;;3.42;;
7375;SDS011;3728;42.266;24.944;2022-09-13T17:05:07;19.27;;;4.22;;
7375;SDS011;3728;42.266;24.944;2022-09-13T17:07:36;16.00;;;5.47;;
7375;SDS011;3728;42.266;24.944;2022-09-13T17:10:05;22.58;;;9.85;;
7375;SDS011;3728;42.266;24.944;2022-09-13T17:12:34;24.55;;;16.02;;
7375;SDS011;3728;42.266;24.944;2022-09-13T17:15:02;28.25;;;20.20;;
7375;SDS011;3728;42.266;24.944;2022-09-13T17:17:30;25.65;;;20.88;;
7375;SDS011;3728;42.266;24.944;2022-09-13T17:20:05;21.95;;;17.00;;
7375;SDS011;3728;42.266;24.944;2022-09-13T17:22:35;15.38;;;12.48;;
7375;SDS011;3728;42.266;24.944;2022-09-13T17:25:03;12.60;;;11.25;;
7375;SDS011;3728;42.266;24.944;2022-09-13T17:27:33;12.80;;;6.85;;
7375;SDS011;3728;42.266;24.944;2022-09-13T17:30:05;9.35;;;5.03;;
7375;SDS011;3728;42.266;24.944;2022-09-13T17:32:34;7.93;;;4.53;;
7375;SDS011;3728;42.266;24.944;2022-09-13T17:35:08;7.10;;;3.70;;
7375;SDS011;3728;42.266;24.944;2022-09-13T17:37:40;7.13;;;3.65;;
7375;SDS011;3728;42.266;24.944;2022-09-13T17:40:07;9.07;;;3.30;;
7375;SDS011;3728;42.266;24.944;2022-09-13T17:42:35;13.95;;;3.45;;
7375;SDS011;3728;42.266;24.944;2022-09-13T17:45:03;6.85;;;3.70;;
7375;SDS011;3728;42.266;24.944;2022-09-13T17:47:32;9.85;;;3.63;;
7375;SDS011;3728;42.266;24.944;2022-09-13T17:50:00;9.30;;;4.07;;
7375;SDS011;3728;42.266;24.944;2022-09-13T17:52:27;8.77;;;3.30;;
7375;SDS011;3728;42.266;24.944;2022-09-13T17:55:01;8.75;;;3.58;;
7375;SDS011;3728;42.266;24.944;2022-09-13T17:57:29;6.18;;;3.00;;
7375;SDS011;3728;42.266;24.944;2022-09-13T17:59:57;5.78;;;3.17;;
7375;SDS011;3728;42.266;24.944;2022-09-13T18:02:24;3.42;;;2.13;;
7375;SDS011;3728;42.266;24.944;2022-09-13T18:04:53;5.40;;;1.73;;
7375;SDS011;3728;42.266;24.944;2022-09-13T18:07:20;3.17;;;1.65;;
7375;SDS011;3728;42.266;24.944;2022-09-13T18:09:48;4.05;;;1.40;;
7375;SDS011;3728;42.266;24.944;2022-09-13T18:12:21;2.72;;;1.45;;
7375;SDS011;3728;42.266;24.944;2022-09-13T18:14:48;6.38;;;1.63;;
7375;SDS011;3728;42.266;24.944;2022-09-13T18:17:16;1.92;;;1.42;;
7375;SDS011;3728;42.266;24.944;2022-09-13T18:19:44;1.73;;;1.33;;
7375;SDS011;3728;42.266;24.944;2022-09-13T18:22:14;1.73;;;1.20;;
7375;SDS011;3728;42.266;24.944;2022-09-13T18:24:42;3.30;;;1.85;;
7375;SDS011;3728;42.266;24.944;2022-09-13T18:27:10;2.90;;;1.58;;
7375;SDS011;3728;42.266;24.944;2022-09-13T18:29:39;3.67;;;1.50;;
7375;SDS011;3728;42.266;24.944;2022-09-13T18:32:07;3.22;;;1.60;;
7375;SDS011;3728;42.266;24.944;2022-09-13T18:34:34;4.97;;;1.90;;
7375;SDS011;3728;42.266;24.944;2022-09-13T18:37:02;3.42;;;1.77;;
7375;SDS011;3728;42.266;24.944;2022-09-13T18:39:31;6.10;;;1.70;;
7375;SDS011;3728;42.266;24.944;2022-09-13T18:41:58;6.28;;;1.92;;
7375;SDS011;3728;42.266;24.944;2022-09-13T18:44:28;5.95;;;1.85;;
7375;SDS011;3728;42.266;24.944;2022-09-13T18:46:59;6.00;;;1.80;;
7375;SDS011;3728;42.266;24.944;2022-09-13T18:49:29;17.48;;;3.42;;
7375;SDS011;3728;42.266;24.944;2022-09-13T18:51:57;18.30;;;4.97;;
7375;SDS011;3728;42.266;24.944;2022-09-13T18:54:39;11.77;;;2.87;;
7375;SDS011;3728;42.266;24.944;2022-09-13T18:57:06;10.68;;;3.40;;
7375;SDS011;3728;42.266;24.944;2022-09-13T18:59:36;8.43;;;3.30;;
7375;SDS011;3728;42.266;24.944;2022-09-13T19:02:07;7.57;;;3.20;;
7375;SDS011;3728;42.266;24.944;2022-09-13T19:04:37;5.03;;;2.87;;
7375;SDS011;3728;42.266;24.944;2022-09-13T19:07:06;8.07;;;3.17;;
7375;SDS011;3728;42.266;24.944;2022-09-13T19:09:34;8.63;;;2.60;;
7375;SDS011;3728;42.266;24.944;2022-09-13T19:12:02;6.20;;;2.40;;
7375;SDS011;3728;42.266;24.944;2022-09-13T19:14:31;8.40;;;2.50;;
7375;SDS011;3728;42.266;24.944;2022-09-13T19:16:59;7.83;;;3.53;;
7375;SDS011;3728;42.266;24.944;2022-09-13T19:19:27;7.13;;;3.57;;
7375;SDS011;3728;42.266;24.944;2022-09-13T19:21:57;7.87;;;2.93;;
7375;SDS011;3728;42.266;24.944;2022-09-13T19:24:26;4.77;;;2.93;;
7375;SDS011;3728;42.266;24.944;2022-09-13T19:26:53;6.43;;;3.00;;
7375;SDS011;3728;42.266;24.944;2022-09-13T19:29:23;7.63;;;3.33;;
7375;SDS011;3728;42.266;24.944;2022-09-13T19:31:52;10.03;;;3.07;;
7375;SDS011;3728;42.266;24.944;2022-09-13T19:34:22;8.27;;;2.90;;
7375;SDS011;3728;42.266;24.944;2022-09-13T19:36:51;7.57;;;3.30;;